createdAt,value
2022-11-02T00:00:30.254Z,100108.73
2022-11-02T00:01:42.472Z,100103.54
2022-11-02T00:02:46.616Z,100103.54
2022-11-02T00:03:50.702Z,100103.27
2022-11-02T00:04:54.586Z,100103.27
2022-11-02T00:06:01.135Z,100096.37
2022-11-02T00:07:05.034Z,100098.20
2022-11-02T00:08:10.543Z,100096.22
2022-11-02T00:09:16.316Z,100096.22
2022-11-02T00:10:25.077Z,100097.33
2022-11-02T00:11:29.038Z,100091.14
2022-11-02T00:12:32.987Z,100101.83
2022-11-02T00:13:38.898Z,100108.88
2022-11-02T00:14:42.663Z,100108.88
2022-11-02T00:15:46.601Z,100102.66
2022-11-02T00:16:50.882Z,100100.98
2022-11-02T00:19:09.181Z,100094.80
2022-11-02T00:20:16.464Z,100093.09
2022-11-02T00:21:25.221Z,100093.09
2022-11-02T00:22:30.504Z,100089.73
2022-11-02T00:23:35.915Z,100088.74
2022-11-02T00:24:40.418Z,100088.28
2022-11-02T00:25:47.293Z,100080.66
2022-11-02T00:26:54.154Z,100090.49
2022-11-02T00:27:58.579Z,100090.49
2022-11-02T00:29:03.768Z,100077.56
2022-11-02T00:30:16.336Z,100077.56
2022-11-02T00:31:21.724Z,100081.07
2022-11-02T00:32:26.625Z,100074.28
2022-11-02T00:33:30.937Z,100075.27
2022-11-02T00:34:35.765Z,100070.20
2022-11-02T00:35:40.561Z,100073.13
2022-11-02T00:36:46.267Z,100077.74
2022-11-02T00:37:52.372Z,100070.95
2022-11-02T00:38:56.388Z,100080.21
2022-11-02T00:40:00.288Z,100068.09
2022-11-02T00:41:04.338Z,100081.84
2022-11-02T00:42:08.440Z,100078.70
2022-11-02T00:43:13.963Z,100075.42
2022-11-02T00:44:17.799Z,100075.57
2022-11-02T00:45:21.767Z,100076.67
2022-11-02T00:46:25.694Z,100076.67
2022-11-02T00:47:29.585Z,100069.88
2022-11-02T00:48:33.528Z,100065.64
2022-11-02T00:49:37.627Z,100065.64
2022-11-02T00:50:42.035Z,100058.05
2022-11-02T00:51:47.416Z,100058.05
2022-11-02T00:52:51.347Z,100055.17
2022-11-02T00:54:00.083Z,100055.17
2022-11-02T00:55:04.090Z,100060.03
2022-11-02T00:56:08.629Z,100053.39
2022-11-02T00:57:12.479Z,100062.59
2022-11-02T00:58:16.337Z,100062.02
2022-11-02T00:59:21.934Z,100058.88
2022-11-02T01:00:25.901Z,100055.73
2022-11-02T01:01:29.866Z,100058.63
2022-11-02T01:02:36.014Z,100056.20
2022-11-02T01:03:43.162Z,100056.20
2022-11-02T01:04:48.726Z,100049.67
2022-11-02T01:05:54.156Z,100056.69
2022-11-02T01:06:58.163Z,100059.34
2022-11-02T01:08:02.598Z,100054.02
2022-11-02T01:09:08.226Z,100058.50
2022-11-02T01:10:12.929Z,100058.50
2022-11-02T01:11:19.816Z,100056.94
2022-11-02T01:12:23.941Z,100060.58
2022-11-02T01:13:28.696Z,100058.03
2022-11-02T01:14:32.823Z,100051.02
2022-11-02T01:15:37.960Z,100055.50
2022-11-02T01:16:41.999Z,100052.84
2022-11-02T01:17:45.962Z,100053.69
2022-11-02T01:18:52.190Z,100055.50
2022-11-02T01:19:57.662Z,100052.11
2022-11-02T01:21:01.774Z,100052.11
2022-11-02T01:22:06.275Z,100061.09
2022-11-02T01:23:12.191Z,100064.95
2022-11-02T01:24:17.539Z,100064.95
2022-11-02T01:25:21.565Z,100053.70
2022-11-02T01:26:25.572Z,100053.70
2022-11-02T01:27:29.440Z,100054.80
2022-11-02T01:28:33.859Z,100059.16
2022-11-02T01:29:39.335Z,100060.39
2022-11-02T01:30:43.331Z,100059.66
2022-11-02T01:31:48.919Z,100056.26
2022-11-02T01:32:54.423Z,100060.98
2022-11-02T01:33:58.358Z,100062.67
2022-11-02T01:35:02.272Z,100060.15
2022-11-02T01:36:07.357Z,100064.60
2022-11-02T01:37:11.502Z,100052.62
2022-11-02T01:38:15.449Z,100053.60
2022-11-02T01:39:23.493Z,100049.95
2022-11-02T01:40:27.414Z,100053.84
2022-11-02T01:41:31.448Z,100054.09
2022-11-02T01:42:37.016Z,100045.13
2022-11-02T01:43:45.830Z,100049.02
2022-11-02T01:44:50.208Z,100045.62
2022-11-02T01:45:59.679Z,100044.78
2022-11-02T01:47:26.625Z,100046.56
2022-11-02T01:48:45.670Z,100044.15
2022-11-02T01:49:56.150Z,100045.23
2022-11-02T01:51:02.972Z,100039.56
2022-11-02T01:52:11.472Z,100046.81
2022-11-02T01:53:18.445Z,100048.49
2022-11-02T01:54:25.366Z,100045.73
2022-11-02T01:55:32.261Z,100045.73
2022-11-02T01:56:38.575Z,100046.56
2022-11-02T01:57:48.292Z,100044.64
2022-11-02T01:58:57.872Z,100042.09
2022-11-02T02:00:10.913Z,100037.63
2022-11-02T02:01:14.937Z,100039.66
2022-11-02T02:02:25.645Z,100040.51
2022-11-02T02:03:32.022Z,100032.52
2022-11-02T02:04:37.260Z,100036.16
2022-11-02T02:05:46.832Z,100036.16
2022-11-02T02:06:54.057Z,100031.19
2022-11-02T02:08:01.307Z,100031.19
2022-11-02T02:09:08.101Z,100034.94
2022-11-02T02:10:12.847Z,100032.66
2022-11-02T02:11:28.430Z,100029.16
2022-11-02T02:12:35.123Z,100030.70
2022-11-02T02:13:39.047Z,100020.19
2022-11-02T02:14:43.603Z,100015.85
2022-11-02T02:16:00.856Z,100018.38
2022-11-02T02:17:40.732Z,100014.98
2022-11-02T02:18:50.347Z,100016.94
2022-11-02T02:20:13.580Z,100022.36
2022-11-02T02:21:41.572Z,100022.36
2022-11-02T02:23:05.161Z,100015.47
2022-11-02T02:24:28.174Z,100020.54
2022-11-02T02:25:59.467Z,100018.86
2022-11-02T02:27:21.443Z,100020.89
2022-11-02T02:28:46.924Z,100016.55
2022-11-02T02:30:11.781Z,100016.55
2022-11-02T02:31:21.579Z,100006.05
2022-11-02T02:32:56.847Z,100007.83
2022-11-02T02:34:22.206Z,100007.97
2022-11-02T02:35:43.891Z,100011.47
2022-11-02T02:36:53.457Z,100002.51
2022-11-02T02:38:00.396Z,100004.47
2022-11-02T02:39:12.862Z,100006.98
2022-11-02T02:40:25.508Z,100006.98
2022-11-02T02:41:38.488Z,100001.06
2022-11-02T02:42:54.187Z,100004.47
2022-11-02T02:44:03.318Z,99997.43
2022-11-02T02:45:35.887Z,99999.98
2022-11-02T02:46:43.219Z,99997.19
2022-11-02T02:47:50.176Z,99997.19
2022-11-02T02:48:57.290Z,99994.66
2022-11-02T02:50:07.190Z,99994.53
2022-11-02T02:51:14.175Z,99994.53
2022-11-02T02:52:20.880Z,99994.53
2022-11-02T02:53:38.106Z,99994.42
2022-11-02T02:54:45.051Z,99988.13
2022-11-02T02:55:53.141Z,99988.13
2022-11-02T02:57:01.701Z,99985.59
2022-11-02T02:58:08.365Z,99986.30
2022-11-02T02:59:23.862Z,99986.30
2022-11-02T03:00:28.751Z,99965.99
2022-11-02T03:01:34.146Z,99997.81
2022-11-02T03:02:38.986Z,99997.81
2022-11-02T03:03:44.175Z,100000.48
2022-11-02T03:04:48.241Z,99996.00
2022-11-02T03:06:07.354Z,99993.45
2022-11-02T03:07:14.578Z,99992.50
2022-11-02T03:08:18.519Z,99991.63
2022-11-02T03:09:43.464Z,99991.63
2022-11-02T03:10:53.067Z,99993.45
2022-11-02T03:12:05.651Z,99992.73
2022-11-02T03:13:36.719Z,99996.24
2022-11-02T03:15:01.418Z,99993.58
2022-11-02T03:16:27.213Z,99990.30
2022-11-02T03:17:39.652Z,99987.88
2022-11-02T03:18:55.361Z,99983.64
2022-11-02T03:20:26.513Z,99981.95
2022-11-02T03:21:42.355Z,99981.95
2022-11-02T03:23:06.083Z,99983.28
2022-11-02T03:24:15.566Z,99988.70
2022-11-02T03:25:31.232Z,99980.72
2022-11-02T03:26:58.901Z,99980.72
2022-11-02T03:28:11.470Z,99983.63
2022-11-02T03:29:21.111Z,99979.28
2022-11-02T03:30:30.090Z,99979.28
2022-11-02T03:31:42.688Z,99995.24
2022-11-02T03:33:10.770Z,99996.92
2022-11-02T03:34:29.635Z,99991.74
2022-11-02T03:35:45.408Z,99994.40
2022-11-02T03:38:20.152Z,99988.95
2022-11-02T03:39:39.240Z,99996.92
2022-11-02T03:40:47.808Z,99996.92
2022-11-02T03:41:55.637Z,99985.45
2022-11-02T03:43:02.185Z,99989.92
2022-11-02T03:44:14.265Z,99984.60
2022-11-02T03:45:21.194Z,99994.27
2022-11-02T03:46:26.959Z,99985.55
2022-11-02T03:47:33.927Z,99992.69
2022-11-02T03:48:40.833Z,99985.55
2022-11-02T03:49:46.880Z,99982.89
2022-11-02T03:50:53.069Z,99975.65
2022-11-02T03:51:59.967Z,99974.70
2022-11-02T03:53:09.907Z,99973.73
2022-11-02T03:54:16.775Z,99973.73
2022-11-02T03:55:23.642Z,99968.41
2022-11-02T03:56:33.859Z,99973.73
2022-11-02T03:57:49.425Z,99973.73
2022-11-02T03:58:53.359Z,99977.36
2022-11-02T04:00:12.602Z,99981.70
2022-11-02T04:01:18.757Z,99973.73
2022-11-02T04:02:23.045Z,99972.05
2022-11-02T04:03:32.640Z,99972.88
2022-11-02T04:04:36.651Z,99974.70
2022-11-02T04:05:40.508Z,99972.98
2022-11-02T04:06:47.408Z,99965.85
2022-11-02T04:07:58.359Z,99965.85
2022-11-02T04:09:00.535Z,99963.09
2022-11-02T04:10:04.709Z,99968.41
2022-11-02T04:11:09.866Z,99966.59
2022-11-02T04:12:13.763Z,99969.25
2022-11-02T04:13:17.619Z,99961.16
2022-11-02T04:14:21.557Z,99961.16
2022-11-02T04:15:26.932Z,99966.48
2022-11-02T04:16:33.247Z,99956.69
2022-11-02T04:17:37.189Z,99965.26
2022-11-02T04:18:41.125Z,99959.00
2022-11-02T04:19:48.695Z,99962.25
2022-11-02T04:20:53.006Z,99963.09
2022-11-02T04:21:57.898Z,99963.09
2022-11-02T04:23:01.837Z,99953.19
2022-11-02T04:24:07.438Z,99958.37
2022-11-02T04:25:16.865Z,99952.94
2022-11-02T04:26:20.799Z,99950.17
2022-11-02T04:27:26.177Z,99950.17
2022-11-02T04:28:30.308Z,99951.86
2022-11-02T04:29:34.165Z,99948.22
2022-11-02T04:30:38.101Z,99946.39
2022-11-02T04:31:43.665Z,99952.59
2022-11-02T04:32:50.438Z,99948.22
2022-11-02T04:33:54.481Z,99940.97
2022-11-02T04:34:58.476Z,99949.92
2022-11-02T04:36:04.391Z,99941.81
2022-11-02T04:37:08.344Z,99948.11
2022-11-02T04:38:12.252Z,99946.88
2022-11-02T04:39:16.101Z,99944.11
2022-11-02T04:40:22.532Z,99948.59
2022-11-02T04:41:27.779Z,99951.12
2022-11-02T04:42:31.687Z,99953.92
2022-11-02T04:43:35.606Z,99946.67
2022-11-02T04:44:39.449Z,99937.70
2022-11-02T04:45:44.966Z,99939.38
2022-11-02T04:46:50.506Z,99935.05
2022-11-02T04:47:55.974Z,99942.05
2022-11-02T04:48:59.897Z,99934.80
2022-11-02T04:50:04.083Z,99939.14
2022-11-02T04:51:07.985Z,99939.14
2022-11-02T04:52:13.495Z,99935.53
2022-11-02T04:53:20.144Z,99930.20
2022-11-02T04:54:24.085Z,99928.39
2022-11-02T04:55:28.509Z,99933.81
2022-11-02T04:56:32.495Z,99930.20
2022-11-02T04:57:36.600Z,99929.23
2022-11-02T04:58:41.132Z,99926.56
2022-11-02T04:59:46.542Z,99927.41
2022-11-02T05:00:50.616Z,99925.62
2022-11-02T05:01:56.145Z,99925.62
2022-11-02T05:03:00.204Z,99928.28
2022-11-02T05:04:04.249Z,99921.97
2022-11-02T05:05:08.507Z,99922.81
2022-11-02T05:06:18.839Z,99922.70
2022-11-02T05:07:25.815Z,99921.83
2022-11-02T05:08:28.616Z,99921.83
2022-11-02T05:09:32.575Z,99919.91
2022-11-02T05:10:38.079Z,99916.41
2022-11-02T05:11:42.083Z,99918.08
2022-11-02T05:12:46.056Z,99914.47
2022-11-02T05:13:51.657Z,99911.81
2022-11-02T05:14:57.335Z,99911.81
2022-11-02T05:16:03.136Z,99918.81
2022-11-02T05:17:07.161Z,99913.23
2022-11-02T05:18:16.158Z,99913.23
2022-11-02T05:19:17.246Z,99916.63
2022-11-02T05:20:22.675Z,99918.31
2022-11-02T05:21:33.881Z,99917.36
2022-11-02T05:22:42.405Z,99911.06
2022-11-02T05:23:47.600Z,99918.09
2022-11-02T05:25:05.282Z,99918.09
2022-11-02T05:26:12.424Z,99915.18
2022-11-02T05:27:17.960Z,99921.23
2022-11-02T05:28:24.022Z,99922.08
2022-11-02T05:29:29.688Z,99921.94
2022-11-02T05:30:35.388Z,99923.75
2022-11-02T05:31:41.131Z,99918.43
2022-11-02T05:32:48.914Z,99913.95
2022-11-02T05:33:56.800Z,99920.25
2022-11-02T05:35:00.773Z,99916.61
2022-11-02T05:36:11.756Z,99911.28
2022-11-02T05:40:05.585Z,99922.91
2022-11-02T05:40:55.667Z,99922.91
2022-11-02T05:42:00.766Z,99920.98
2022-11-02T05:43:05.916Z,99916.50
2022-11-02T05:44:09.436Z,99918.18
2022-11-02T05:45:13.523Z,99918.18
2022-11-02T05:46:20.669Z,99921.57
2022-11-02T05:47:29.139Z,99921.68
2022-11-02T05:48:36.378Z,99920.73
2022-11-02T05:49:44.273Z,99921.68
2022-11-02T05:50:49.657Z,99933.06
2022-11-02T05:51:53.706Z,99929.45
2022-11-02T05:53:00.376Z,99925.80
2022-11-02T05:54:23.919Z,99928.32
2022-11-02T05:55:22.422Z,99922.77
2022-11-02T05:56:26.282Z,99923.36
2022-11-02T05:57:30.296Z,99922.02
2022-11-02T05:58:37.143Z,99924.31
2022-11-02T05:59:45.144Z,99924.31
2022-11-02T06:01:22.567Z,99921.46
2022-11-02T06:01:59.586Z,99924.34
2022-11-02T06:03:03.736Z,99928.20
2022-11-02T06:04:21.064Z,99916.91
2022-11-02T06:06:34.052Z,99918.19
2022-11-02T06:07:51.725Z,99922.76
2022-11-02T06:08:54.140Z,99926.58
2022-11-02T06:09:59.462Z,99923.15
2022-11-02T06:12:28.693Z,99928.02
2022-11-02T06:13:38.328Z,99933.55
2022-11-02T06:14:42.239Z,99929.35
2022-11-02T06:16:17.509Z,99931.36
2022-11-02T06:17:02.723Z,99928.03
2022-11-02T06:18:11.229Z,99931.15
2022-11-02T06:20:20.263Z,99931.05
2022-11-02T06:21:27.203Z,99933.17
2022-11-02T06:22:31.974Z,99929.27
2022-11-02T06:24:31.203Z,99937.72
2022-11-02T06:24:48.893Z,99942.80
2022-11-02T06:27:08.264Z,99942.23
2022-11-02T06:29:06.338Z,99936.66
2022-11-02T06:29:11.440Z,99942.23
2022-11-02T06:29:25.741Z,99936.66
2022-11-02T06:30:29.734Z,99946.39
2022-11-02T06:31:33.739Z,99935.30
2022-11-02T06:32:41.438Z,99945.71
2022-11-02T06:33:54.093Z,99945.44
2022-11-02T06:34:57.417Z,99945.44
2022-11-02T06:37:52.439Z,99946.55
2022-11-02T06:38:45.746Z,99952.64
2022-11-02T06:39:51.806Z,99952.64
2022-11-02T06:41:03.196Z,99961.92
2022-11-02T06:42:08.803Z,99945.48
2022-11-02T06:43:17.415Z,99946.46
2022-11-02T06:44:20.215Z,99956.75
2022-11-02T06:45:25.248Z,99952.79
2022-11-02T06:46:29.327Z,99953.34
2022-11-02T06:47:38.918Z,99949.55
2022-11-02T06:48:54.393Z,99949.97
2022-11-02T06:49:56.783Z,99949.84
2022-11-02T06:51:07.735Z,99953.06
2022-11-02T06:52:13.202Z,99944.91
2022-11-02T06:53:17.526Z,99946.47
2022-11-02T06:54:21.428Z,99950.40
2022-11-02T06:55:25.461Z,99944.05
2022-11-02T06:56:29.408Z,99948.27
2022-11-02T06:57:38.463Z,99948.27
2022-11-02T06:58:42.549Z,99948.83
2022-11-02T06:59:53.762Z,99952.08
2022-11-02T07:01:05.172Z,99949.95
2022-11-02T07:02:10.398Z,99952.53
2022-11-02T07:03:14.318Z,99952.53
2022-11-02T07:04:18.318Z,99950.53
2022-11-02T07:05:23.571Z,99953.33
2022-11-02T07:06:29.858Z,99959.39
2022-11-02T07:07:33.797Z,99959.09
2022-11-02T07:08:37.898Z,99949.39
2022-11-02T07:09:41.797Z,99949.39
2022-11-02T07:10:48.739Z,99955.87
2022-11-02T07:11:53.441Z,99955.87
2022-11-02T07:12:58.821Z,99957.25
2022-11-02T07:14:02.776Z,99959.09
2022-11-02T07:15:07.138Z,99952.61
2022-11-02T07:16:12.273Z,99956.41
2022-11-02T07:17:16.232Z,99953.73
2022-11-02T07:18:20.529Z,99955.28
2022-11-02T07:19:24.477Z,99955.28
2022-11-02T07:20:28.586Z,99951.61
2022-11-02T07:21:32.697Z,99956.66
2022-11-02T07:22:39.645Z,99949.05
2022-11-02T07:23:43.505Z,99953.43
2022-11-02T07:24:49.921Z,99953.97
2022-11-02T07:25:53.144Z,99959.87
2022-11-02T07:26:57.232Z,99959.87
2022-11-02T07:28:04.021Z,99965.50
2022-11-02T07:29:08.085Z,99959.14
2022-11-02T07:30:12.767Z,99959.14
2022-11-02T07:31:30.722Z,99951.65
2022-11-02T07:32:31.459Z,99958.01
2022-11-02T07:33:35.409Z,99955.33
2022-11-02T07:34:39.276Z,99960.55
2022-11-02T07:35:45.258Z,99945.16
2022-11-02T07:36:53.269Z,99948.70
2022-11-02T07:37:59.654Z,99953.47
2022-11-02T07:39:04.278Z,99953.16
2022-11-02T07:40:12.425Z,99961.91
2022-11-02T07:41:16.614Z,99954.54
2022-11-02T07:42:24.523Z,99949.18
2022-11-02T07:43:30.016Z,99949.18
2022-11-02T07:44:35.558Z,99949.18
2022-11-02T07:45:39.422Z,99946.64
2022-11-02T07:46:43.337Z,99949.69
2022-11-02T07:47:48.187Z,99949.69
2022-11-02T07:48:53.885Z,99948.81
2022-11-02T07:50:01.264Z,99942.14
2022-11-02T07:51:04.153Z,99942.14
2022-11-02T07:52:08.107Z,99947.06
2022-11-02T07:53:13.260Z,99945.62
2022-11-02T07:54:18.748Z,99947.69
2022-11-02T07:55:25.756Z,99942.05
2022-11-02T07:56:31.248Z,99942.05
2022-11-02T07:57:35.181Z,99938.45
2022-11-02T07:58:39.038Z,99933.09
2022-11-02T07:59:42.887Z,99941.21
2022-11-02T08:00:48.379Z,99941.73
2022-11-02T08:01:52.381Z,99939.75
2022-11-02T08:02:58.628Z,99929.87
2022-11-02T08:04:02.510Z,99927.88
2022-11-02T08:05:06.978Z,99925.59
2022-11-02T08:06:11.212Z,99928.97
2022-11-02T08:07:17.140Z,99928.97
2022-11-02T08:08:23.047Z,99920.99
2022-11-02T08:09:27.008Z,99920.68
2022-11-02T08:10:37.086Z,99924.06
2022-11-02T08:11:39.524Z,99907.65
2022-11-02T08:12:43.816Z,99921.73
2022-11-02T08:13:47.790Z,99919.73
2022-11-02T08:14:54.733Z,99921.45
2022-11-02T08:16:00.402Z,99926.50
2022-11-02T08:17:06.235Z,99919.42
2022-11-02T08:18:17.528Z,99923.64
2022-11-02T08:19:22.697Z,99924.51
2022-11-02T08:20:28.378Z,99923.50
2022-11-02T08:21:33.815Z,99923.50
2022-11-02T08:22:41.467Z,99921.12
2022-11-02T08:23:48.377Z,99921.12
2022-11-02T08:24:52.343Z,99926.18
2022-11-02T08:25:59.103Z,99925.87
2022-11-02T08:27:03.079Z,99925.17
2022-11-02T08:28:09.764Z,99925.17
2022-11-02T08:29:13.830Z,99923.88
2022-11-02T08:30:19.469Z,99923.88
2022-11-02T08:31:23.445Z,99926.28
2022-11-02T08:32:27.303Z,99926.28
2022-11-02T08:33:31.183Z,99926.97
2022-11-02T08:34:35.027Z,99927.35
2022-11-02T08:35:39.623Z,99926.34
2022-11-02T08:36:45.063Z,99934.25
2022-11-02T08:37:56.732Z,99934.25
2022-11-02T08:39:33.237Z,99938.43
2022-11-02T08:40:10.061Z,99941.11
2022-11-02T08:41:14.021Z,99939.13
2022-11-02T08:42:19.527Z,99933.06
2022-11-02T08:43:23.610Z,99933.06
2022-11-02T08:44:27.549Z,99938.15
2022-11-02T08:46:00.585Z,99938.15
2022-11-02T08:46:39.457Z,99939.19
2022-11-02T08:47:43.420Z,99939.19
2022-11-02T08:48:47.335Z,99936.88
2022-11-02T08:49:51.313Z,99938.58
2022-11-02T08:50:55.527Z,99924.84
2022-11-02T08:52:01.122Z,99927.20
2022-11-02T08:53:07.415Z,99927.20
2022-11-02T08:54:12.928Z,99927.20
2022-11-02T08:55:16.919Z,99921.36
2022-11-02T08:56:25.052Z,99922.86
2022-11-02T08:58:42.675Z,99915.34
2022-11-02T08:59:14.084Z,99904.75
2022-11-02T08:59:46.565Z,99915.49
2022-11-02T09:00:53.517Z,99913.50
2022-11-02T09:01:58.341Z,99904.75
2022-11-02T09:03:25.036Z,99912.80
2022-11-02T09:04:17.464Z,99912.66
2022-11-02T09:05:24.483Z,99912.66
2022-11-02T09:06:31.380Z,99916.33
2022-11-02T09:07:37.551Z,99909.28
2022-11-02T09:08:42.802Z,99909.28
2022-11-02T09:09:46.720Z,99915.49
2022-11-02T09:10:53.509Z,99910.81
2022-11-02T09:11:57.676Z,99911.83
2022-11-02T09:13:03.900Z,99909.80
2022-11-02T09:14:09.734Z,99910.67
2022-11-02T09:15:13.670Z,99909.33
2022-11-02T09:16:19.227Z,99911.55
2022-11-02T09:17:24.596Z,99917.91
2022-11-02T09:18:30.589Z,99914.02
2022-11-02T09:19:35.428Z,99909.19
2022-11-02T09:20:39.547Z,99909.19
2022-11-02T09:21:43.924Z,99908.02
2022-11-02T09:22:48.321Z,99905.67
2022-11-02T09:23:52.416Z,99905.67
2022-11-02T09:24:56.318Z,99898.84
2022-11-02T09:26:00.345Z,99909.41
2022-11-02T09:27:06.406Z,99902.87
2022-11-02T09:28:12.045Z,99894.48
2022-11-02T09:29:16.019Z,99894.48
2022-11-02T09:30:24.216Z,99902.91
2022-11-02T09:31:28.238Z,99902.91
2022-11-02T09:32:32.550Z,99895.54
2022-11-02T09:33:36.482Z,99895.89
2022-11-02T09:34:40.355Z,99895.89
2022-11-02T09:35:49.348Z,99894.55
2022-11-02T09:36:56.808Z,99889.17
2022-11-02T09:38:00.857Z,99893.38
2022-11-02T09:39:06.293Z,99893.23
2022-11-02T09:40:12.516Z,99885.68
2022-11-02T09:41:32.173Z,99895.11
2022-11-02T09:43:10.528Z,99883.50
2022-11-02T09:44:39.864Z,99883.20
2022-11-02T09:45:58.245Z,99883.20
2022-11-02T09:49:26.638Z,99886.72
2022-11-02T09:51:06.414Z,99892.09
2022-11-02T09:52:16.002Z,99885.02
2022-11-02T09:53:22.051Z,99880.33
2022-11-02T09:54:36.880Z,99883.85
2022-11-02T09:55:45.452Z,99883.85
2022-11-02T09:56:53.851Z,99889.23
2022-11-02T09:58:02.589Z,99882.86
2022-11-02T09:59:24.395Z,99888.06
2022-11-02T10:00:31.426Z,99889.77
2022-11-02T10:02:07.047Z,99886.89
2022-11-02T10:03:31.741Z,99889.25
2022-11-02T10:05:05.290Z,99880.34
2022-11-02T10:06:35.284Z,99889.43
2022-11-02T10:07:53.699Z,99883.03
2022-11-02T10:09:04.873Z,99884.89
2022-11-02T10:10:16.553Z,99884.89
2022-11-02T10:11:44.821Z,99882.89
2022-11-02T10:13:08.339Z,99875.47
2022-11-02T10:14:22.887Z,99875.47
2022-11-02T10:15:41.381Z,99881.20
2022-11-02T10:16:58.816Z,99885.26
2022-11-02T10:18:09.797Z,99888.63
2022-11-02T10:20:45.908Z,99888.30
2022-11-02T10:21:52.920Z,99883.06
2022-11-02T10:23:02.963Z,99881.06
2022-11-02T10:25:41.298Z,99883.91
2022-11-02T10:26:49.432Z,99888.30
2022-11-02T10:27:56.151Z,99879.21
2022-11-02T10:29:11.330Z,99872.16
2022-11-02T10:30:24.753Z,99875.53
2022-11-02T10:31:33.909Z,99874.52
2022-11-02T10:33:47.332Z,99878.87
2022-11-02T10:36:16.839Z,99875.20
2022-11-02T10:36:18.106Z,99875.20
2022-11-02T10:37:32.222Z,99878.22
2022-11-02T10:38:52.801Z,99876.52
2022-11-02T10:40:22.194Z,99874.17
2022-11-02T10:41:44.608Z,99862.40
2022-11-02T10:42:58.307Z,99869.48
2022-11-02T10:44:29.361Z,99867.47
2022-11-02T10:46:00.167Z,99865.77
2022-11-02T10:47:24.787Z,99865.09
2022-11-02T10:49:08.912Z,99865.09
2022-11-02T10:50:21.021Z,99860.58
2022-11-02T10:51:24.872Z,99870.31
2022-11-02T10:52:33.462Z,99865.77
2022-11-02T10:53:41.749Z,99865.77
2022-11-02T10:54:51.809Z,99866.11
2022-11-02T10:56:16.802Z,99863.42
2022-11-02T10:57:25.099Z,99866.94
2022-11-02T10:58:33.886Z,99866.11
2022-11-02T10:59:40.734Z,99872.84
2022-11-02T11:00:46.688Z,99868.78
2022-11-02T11:01:58.570Z,99865.95
2022-11-02T11:03:11.133Z,99868.64
2022-11-02T11:04:23.904Z,99868.64
2022-11-02T11:05:27.875Z,99870.30
2022-11-02T11:06:40.568Z,99871.48
2022-11-02T11:07:45.077Z,99865.08
2022-11-02T11:08:52.113Z,99870.45
2022-11-02T11:09:57.852Z,99864.92
2022-11-02T11:11:16.085Z,99864.92
2022-11-02T11:12:31.974Z,99870.16
2022-11-02T11:16:16.839Z,99866.45
2022-11-02T11:19:52.021Z,99872.33
2022-11-02T11:20:56.953Z,99872.33
2022-11-02T11:22:03.976Z,99867.78
2022-11-02T11:23:23.197Z,99877.89
2022-11-02T11:24:33.746Z,99875.70
2022-11-02T11:25:40.545Z,99875.70
2022-11-02T11:26:45.892Z,99868.12
2022-11-02T11:27:54.974Z,99875.02
2022-11-02T11:28:59.013Z,99873.85
2022-11-02T11:30:06.090Z,99873.73
2022-11-02T11:31:21.249Z,99867.17
2022-11-02T11:32:32.328Z,99867.17
2022-11-02T11:33:45.168Z,99868.16
2022-11-02T11:34:57.304Z,99871.20
2022-11-02T11:36:02.081Z,99871.38
2022-11-02T11:37:12.942Z,99875.59
2022-11-02T11:38:21.642Z,99868.84
2022-11-02T11:39:28.620Z,99869.52
2022-11-02T11:40:38.367Z,99865.81
2022-11-02T11:41:42.488Z,99870.20
2022-11-02T11:42:48.108Z,99862.13
2022-11-02T11:43:54.835Z,99871.87
2022-11-02T11:45:16.676Z,99872.89
2022-11-02T11:46:23.645Z,99864.48
2022-11-02T11:47:33.828Z,99864.48
2022-11-02T11:48:46.606Z,99864.48
2022-11-02T11:50:10.510Z,99865.16
2022-11-02T11:51:02.044Z,99859.24
2022-11-02T11:52:07.790Z,99870.87
2022-11-02T11:53:23.477Z,99866.14
2022-11-02T11:54:31.392Z,99865.15
2022-11-02T11:55:35.660Z,99868.48
2022-11-02T11:56:41.486Z,99867.49
2022-11-02T11:57:47.188Z,99863.78
2022-11-02T11:58:52.823Z,99857.56
2022-11-02T12:00:00.638Z,99862.94
2022-11-02T12:01:16.808Z,99860.41
2022-11-02T12:02:31.520Z,99860.41
2022-11-02T12:04:00.161Z,99856.53
2022-11-02T12:05:09.532Z,99851.15
2022-11-02T12:06:36.770Z,99853.01
2022-11-02T12:08:04.190Z,99851.50
2022-11-02T12:09:19.704Z,99850.66
2022-11-02T12:10:28.261Z,99858.39
2022-11-02T12:11:53.297Z,99848.65
2022-11-02T12:13:21.362Z,99855.70
2022-11-02T12:15:06.856Z,99850.31
2022-11-02T12:16:26.678Z,99851.50
2022-11-02T12:17:54.363Z,99854.03
2022-11-02T12:19:11.430Z,99854.03
2022-11-02T12:20:35.030Z,99854.19
2022-11-02T12:21:57.144Z,99852.52
2022-11-02T12:23:07.124Z,99855.37
2022-11-02T12:24:32.307Z,99855.37
2022-11-02T12:25:54.019Z,99864.63
2022-11-02T12:27:08.831Z,99879.94
2022-11-02T12:28:39.444Z,99862.13
2022-11-02T12:30:08.838Z,99869.36
2022-11-02T12:31:21.721Z,99871.19
2022-11-02T12:32:32.880Z,99871.19
2022-11-02T12:33:42.663Z,99873.88
2022-11-02T12:35:03.010Z,99873.88
2022-11-02T12:36:10.136Z,99873.88
2022-11-02T12:37:38.592Z,99872.55
2022-11-02T12:38:36.402Z,99877.92
2022-11-02T12:39:56.423Z,99867.84
2022-11-02T12:41:19.805Z,99877.59
2022-11-02T12:42:37.950Z,99870.53
2022-11-02T12:43:55.951Z,99882.97
2022-11-02T12:45:21.123Z,99878.61
2022-11-02T12:46:48.654Z,99870.19
2022-11-02T12:48:03.031Z,99882.97
2022-11-02T12:49:36.248Z,99877.59
2022-11-02T12:50:55.634Z,99875.91
2022-11-02T12:52:08.320Z,99876.75
2022-11-02T12:53:30.035Z,99876.75
2022-11-02T12:54:41.735Z,99865.15
2022-11-02T12:55:48.893Z,99865.15
2022-11-02T12:56:57.101Z,99870.53
2022-11-02T12:58:07.862Z,99870.53
2022-11-02T12:59:26.401Z,99868.83
2022-11-02T13:00:35.651Z,99874.22
2022-11-02T13:01:43.702Z,99877.59
2022-11-02T13:03:08.095Z,99887.33
2022-11-02T13:04:18.311Z,99887.33
2022-11-02T13:05:32.097Z,99888.35
2022-11-02T13:06:44.497Z,99888.35
2022-11-02T13:08:00.805Z,99883.31
2022-11-02T13:09:15.033Z,99884.34
2022-11-02T13:10:24.538Z,99890.03
2022-11-02T13:11:43.114Z,99891.39
2022-11-02T13:12:54.595Z,99891.39
2022-11-02T13:14:01.620Z,99892.08
2022-11-02T13:15:11.812Z,99892.08
2022-11-02T13:16:19.493Z,99892.08
2022-11-02T13:17:29.531Z,99891.40
2022-11-02T13:18:41.998Z,99904.36
2022-11-02T13:19:57.810Z,99902.84
2022-11-02T13:21:04.712Z,99901.48
2022-11-02T13:22:11.619Z,99892.39
2022-11-02T13:23:25.542Z,99897.77
2022-11-02T13:24:34.200Z,99903.14
2022-11-02T13:25:52.478Z,99906.86
2022-11-02T13:27:13.871Z,99908.83
2022-11-02T13:28:18.854Z,99908.83
2022-11-02T13:29:39.340Z,99905.30
2022-11-02T13:30:48.339Z,99907.50
2022-11-02T13:31:59.574Z,99905.64
2022-11-02T13:33:15.858Z,99907.50
2022-11-02T13:34:36.384Z,99907.50
2022-11-02T13:35:41.103Z,99903.44
2022-11-02T13:36:45.856Z,99915.22
2022-11-02T13:37:54.417Z,99913.52
2022-11-02T13:39:09.802Z,99908.81
2022-11-02T13:40:23.765Z,99874.13
2022-11-02T13:41:44.014Z,99917.21
2022-11-02T13:43:12.181Z,99916.53
2022-11-02T13:44:50.160Z,99914.02
2022-11-02T13:46:10.549Z,99918.87
2022-11-02T13:47:34.304Z,99918.70
2022-11-02T13:48:50.173Z,99918.19
2022-11-02T13:49:56.453Z,99928.27
2022-11-02T13:51:03.409Z,99932.13